Observations for LONDON HEATHROW, United Kingdom (EGLL)

EGLL 200620Z AUTO VRB03KT 8000 NCD 10/06 Q1031 NOSIG
EGLL 200550Z AUTO VRB02KT 7000 NCD 09/06 Q1031 NOSIG
EGLL 200520Z AUTO VRB03KT 8000 NCD 09/06 Q1031 NOSIG
EGLL 200450Z AUTO VRB02KT 8000 NCD 09/06 Q1031 NOSIG
EGLL 200420Z AUTO VRB03KT 8000 NCD 10/06 Q1031 NOSIG
EGLL 200350Z AUTO VRB03KT 9000 NCD 10/06 Q1031 NOSIG
EGLL 200320Z AUTO 32002KT 9000 NCD 09/07 Q1031 NOSIG
EGLL 200250Z AUTO VRB03KT 9000 NCD 10/07 Q1031 NOSIG
EGLL 200220Z AUTO 36003KT 9999 NCD 11/07 Q1031 NOSIG
EGLL 200150Z AUTO 35004KT 9999 NCD 11/07 Q1031 NOSIG
EGLL 200120Z AUTO 35004KT 9999 NCD 11/07 Q1031 NOSIG
EGLL 200050Z AUTO 02003KT 9999 NCD 12/07 Q1031 NOSIG
EGLL 200020Z AUTO 34004KT 9999 NCD 12/06 Q1031 NOSIG
EGLL 192350Z AUTO 35002KT 9999 NCD 13/05 Q1031 NOSIG
EGLL 192320Z AUTO 03003KT 9999 NCD 13/05 Q1031 NOSIG
EGLL 192250Z AUTO VRB02KT 9999 NCD 14/05 Q1031 NOSIG
EGLL 192220Z AUTO 02002KT 9999 NCD 14/05 Q1031 NOSIG
EGLL 192150Z AUTO VRB02KT 9999 NCD 15/05 Q1031 NOSIG
EGLL 192120Z AUTO 08002KT 9999 NCD 15/05 Q1030 NOSIG
EGLL 192050Z AUTO 04003KT 9999 NCD 17/04 Q1030 NOSIG
EGLL 192020Z AUTO 07003KT 9999 NCD 17/04 Q1030 NOSIG
EGLL 191950Z AUTO 10004KT 9999 NCD 15/04 Q1030 NOSIG
EGLL 191920Z AUTO 10006KT 9999 NCD 16/04 Q1030 NOSIG
EGLL 191850Z AUTO 10006KT 9999 NCD 17/05 Q1029 NOSIG
EGLL 191820Z AUTO 09009KT 9999 NCD 19/05 Q1029 NOSIG
EGLL 191750Z AUTO 10009KT 9999 NCD 20/05 Q1029 NOSIG
EGLL 191720Z AUTO 09010KT 9999 NCD 21/03 Q1028 NOSIG
EGLL 191650Z AUTO 10010KT 060V130 9999 NCD 22/04 Q1028 NOSIG
EGLL 191620Z AUTO 09010KT 060V130 9999 NCD 22/05 Q1028 NOSIG
EGLL 191550Z AUTO 09007KT 050V120 9999 NCD 23/04 Q1028 NOSIG
EGLL 191520Z AUTO 07007KT 020V110 9999 NCD 23/04 Q1028 NOSIG
EGLL 191450Z AUTO 06008KT 010V090 9999 NCD 23/04 Q1028 NOSIG
EGLL 191420Z AUTO 07007KT 030V120 9999 NCD 23/06 Q1028 NOSIG
EGLL 191350Z AUTO 08008KT 040V110 9999 NCD 23/06 Q1028 NOSIG
EGLL 191320Z AUTO 07009KT 030V100 9999 NCD 23/06 Q1028 NOSIG
EGLL 191250Z AUTO 05007KT 010V100 9999 NCD 22/06 Q1028 NOSIG
EGLL 191220Z AUTO 07009KT 030V110 9999 NCD 22/07 Q1028 NOSIG
EGLL 191150Z AUTO 06007KT 010V110 9999 NCD 21/07 Q1028 NOSIG
EGLL 191120Z AUTO 06008KT 010V090 9999 NCD 21/07 Q1028 NOSIG
EGLL 191050Z AUTO 06008KT 010V080 9999 NCD 20/08 Q1028 NOSIG
EGLL 191020Z AUTO 05006KT 010V080 9999 NCD 19/08 Q1028 NOSIG
EGLL 190950Z AUTO 05006KT 010V080 9999 NCD 17/07 Q1028 NOSIG
EGLL 190920Z AUTO 05005KT 350V090 9999 NCD 16/07 Q1028 NOSIG
EGLL 190850Z AUTO 04005KT 010V070 9999 NCD 15/07 Q1028 NOSIG
EGLL 190820Z AUTO 04004KT 010V080 9999 NCD 14/07 Q1028 NOSIG
EGLL 190750Z AUTO 04006KT 010V070 9999 NCD 13/07 Q1028 NOSIG
EGLL 190720Z AUTO 05007KT 020V080 9000 NCD 12/06 Q1028 NOSIG
EGLL 190650Z AUTO 04005KT 010V070 9000 NCD 11/06 Q1028 NOSIG
EGLL 190620Z AUTO 03004KT 330V060 8000 NCD 10/06 Q1028 NOSIG
EGLL 190550Z AUTO 02004KT 350V060 8000 NCD 09/06 Q1027 NOSIG